Cambridge, MA (02138)

10:39 AM EDT on August 30, 2015 (GMT -0400)
Huron Village | | Change Station
CLOSE
Current Station
Personal Weather Station
Location: Cambridge, MA
Elevation: 62 ft
Nearby Weather Stations

Elev 62 ft 42.38 °N, 71.13 °W | Updated 3 minutes ago

Partly Cloudy
Partly Cloudy
85.1 °F
Feels Like 87 °F
N
0.0
Wind Variable Wind from North
Gusts 0.0 mph

Today
High -- | Low -- °F
--% Chance of Precip.
Yesterday
High -- | Low -- °F
Precip. -- in
6:07 AM 7:22 PM
Full, 99% visible
Pressure 30.07 in
Visibility 10.0 miles
Clouds Few 10000 ft
Scattered Clouds 25000 ft
Heat Index 87 °F
Dew Point 66 °F
Humidity 53%
Rainfall 0.00 in
Snow Depth Not available.
UV 4 out of 12
Pollen 10.70 out of 12
Air Quality Not available.
Flu Activity Not available.
METAR KBOS 301354Z 27005KT 10SM FEW100 SCT250 25/17 A3007 RMK AO2 SLP183 T02500172
Pressure 30.07 in
Visibility 10.0 miles
Clouds Few 10000 ft
Scattered Clouds 25000 ft
Heat Index 87 °F
Dew Point 66 °F
Humidity 53%
Rainfall 0.00 in
Snow Depth Not available.
UV 4 out of 12
Pollen 10.70 out of 12
Air Quality Not available.
Flu Activity Not available.
METAR KBOS 301354Z 27005KT 10SM FEW100 SCT250 25/17 A3007 RMK AO2 SLP183 T02500172

10-Day Weather Forecast

×

Almanac

Astronomy

Aug. 30, 2015 Rise Set
Actual Time
Civil Twilight
Nautical Twilight
Astronomical Twilight
Moon
Length of Visible Light
Length of Day
Tomorrow will be .
, % of the Moon is Illuminated

Today's Extremes

State Highs State Lows

Community

WunderPhotos

Upload Photos

1,850,974 photos uploaded!

WunderBlogs® & News

Nearby

Air Quality

  Air Quality AQ Index Pollutant
Not available.

Snow Depth

Station Depth Elevation

Earthquake Activity

City Distance Mag. Time & Date
Minimum magnitude displayed is 2.5.

Coastal Water Temperatures

Place Temperature

Stations

Nearby Weather Stations

Station Location Temp. Windchill Dew Point Humidity Wind Precip. Elev Updated Type